Time;durP1;ratioP1;P1;durP2;ratioP2;P2;SDS_P1;SDS_P2;PMS_P1;PMS_P2;Temp;Humidity;BMP_temperature;BMP_pressure;BME280_temperature;BME280_humidity;BME280_pressure;Samples;Min_cycle;Max_cycle;Signal;HPM_P1;HPM_P2
2021/07/27 00:01:09;;;;;;;3.60;3.40;;;25.00;63.80;;;;;;5050762;28;20440;-45
2021/07/27 00:03:37;;;;;;;4.03;3.83;;;25.00;63.80;;;;;;5051894;28;20169;-45
2021/07/27 00:06:06;;;;;;;4.18;3.97;;;25.00;63.70;;;;;;5053478;28;20033;-45
2021/07/27 00:08:32;;;;;;;3.63;3.42;;;25.00;63.70;;;;;;5054767;28;20029;-44
2021/07/27 00:10:59;;;;;;;3.40;3.20;;;25.00;63.40;;;;;;5052585;28;20029;-43
2021/07/27 00:13:24;;;;;;;3.85;3.65;;;25.00;63.20;;;;;;5053653;28;20028;-40
2021/07/27 00:15:50;;;;;;;3.17;3.03;;;25.00;63.40;;;;;;5053181;28;20032;-38
2021/07/27 00:18:15;;;;;;;3.63;3.50;;;25.00;63.40;;;;;;5053114;28;20032;-43
2021/07/27 00:20:41;;;;;;;3.65;3.45;;;24.90;63.40;;;;;;5053810;28;20037;-48
2021/07/27 00:23:06;;;;;;;3.75;3.55;;;25.00;63.40;;;;;;5054065;28;20431;-45
2021/07/27 00:25:32;;;;;;;3.50;3.40;;;25.00;63.40;;;;;;5056454;28;20042;-42
2021/07/27 00:27:58;;;;;;;4.05;3.65;;;25.00;63.50;;;;;;5056246;28;20608;-42
2021/07/27 00:30:23;;;;;;;3.38;3.17;;;25.00;63.60;;;;;;5055860;28;20036;-40
2021/07/27 00:32:49;;;;;;;3.88;3.67;;;25.00;63.50;;;;;;5054047;28;20103;-45
2021/07/27 00:35:15;;;;;;;4.00;3.80;;;24.90;63.60;;;;;;5055597;28;20028;-40
2021/07/27 00:37:45;;;;;;;4.22;3.45;;;25.00;63.50;;;;;;5055980;28;20129;-52
2021/07/27 00:40:13;;;;;;;3.75;3.55;;;25.00;63.50;;;;;;5055924;28;20040;-45
2021/07/27 00:42:48;;;;;;;3.80;3.50;;;25.00;63.50;;;;;;5053717;28;20522;-53
2021/07/27 00:45:16;;;;;;;3.97;3.78;;;25.00;63.50;;;;;;5055873;28;20074;-42
2021/07/27 00:47:42;;;;;;;3.53;3.33;;;25.00;63.70;;;;;;5056094;28;20029;-45
2021/07/27 00:50:08;;;;;;;4.05;3.70;;;25.00;63.80;;;;;;5056059;28;20475;-47
2021/07/27 00:52:37;;;;;;;3.38;3.17;;;25.00;63.70;;;;;;5053804;28;20095;-48
2021/07/27 00:55:04;;;;;;;3.85;3.65;;;25.00;63.60;;;;;;5046603;28;20043;-45
2021/07/27 00:57:30;;;;;;;3.20;3.10;;;25.00;63.50;;;;;;5055640;28;20040;-46
2021/07/27 00:59:56;;;;;;;3.03;2.92;;;25.00;63.60;;;;;;5059870;28;20870;-46
2021/07/27 01:02:22;;;;;;;3.63;3.42;;;25.00;63.60;;;;;;5057684;28;20055;-48
2021/07/27 01:04:48;;;;;;;3.80;3.60;;;25.00;63.50;;;;;;5059059;28;20041;-45
2021/07/27 01:07:13;;;;;;;3.45;3.35;;;25.00;63.70;;;;;;5059285;28;20127;-44
2021/07/27 01:09:39;;;;;;;3.20;3.00;;;24.90;63.80;;;;;;5058738;28;20798;-45
2021/07/27 01:12:04;;;;;;;3.72;3.53;;;25.00;63.80;;;;;;5048015;28;20033;-43
2021/07/27 01:14:30;;;;;;;3.70;3.50;;;25.00;63.90;;;;;;5048515;28;20504;-49
2021/07/27 01:16:56;;;;;;;3.45;3.13;;;24.90;64.10;;;;;;5059397;28;20028;-44
2021/07/27 01:19:40;;;;;;;3.38;3.17;;;24.90;64.30;;;;;;5059139;28;20032;-45
2021/07/27 01:43:40;;;;;;;2.83;2.72;;;25.00;63.70;;;;;;5057450;28;20036;-45
2021/07/27 01:46:07;;;;;;;2.80;2.70;;;25.00;64.00;;;;;;5049782;28;20387;-45
2021/07/27 01:48:33;;;;;;;3.10;2.90;;;24.90;63.90;;;;;;5058155;28;20784;-49
2021/07/27 01:50:59;;;;;;;3.40;3.20;;;25.00;63.70;;;;;;5056829;28;20031;-46
2021/07/27 01:53:43;;;;;;;3.35;3.22;;;25.00;63.60;;;;;;5058187;28;20028;-49
2021/07/27 01:56:12;;;;;;;2.85;2.75;;;25.00;63.80;;;;;;5059267;28;20437;-45
2021/07/27 01:58:38;;;;;;;2.90;2.78;;;25.00;63.70;;;;;;5058142;28;20037;-44
2021/07/27 02:01:03;;;;;;;3.33;3.22;;;25.00;63.50;;;;;;5057007;28;20490;-44
2021/07/27 02:03:29;;;;;;;3.30;3.10;;;25.00;63.50;;;;;;5056834;28;20138;-45
2021/07/27 02:05:54;;;;;;;2.88;2.78;;;25.00;63.70;;;;;;5058129;28;20025;-45
2021/07/27 02:08:21;;;;;;;3.63;3.42;;;25.00;63.40;;;;;;5058579;28;20040;-44
2021/07/27 02:10:51;;;;;;;3.28;3.17;;;25.00;63.40;;;;;;5057271;28;20040;-44
2021/07/27 02:13:28;;;;;;;3.70;3.50;;;25.00;63.40;;;;;;5057663;28;20500;-44
2021/07/27 02:15:53;;;;;;;3.20;3.08;;;25.00;63.30;;;;;;5057684;28;20170;-47
2021/07/27 02:18:21;;;;;;;3.75;3.55;;;25.00;63.40;;;;;;5058135;28;20464;-46
2021/07/27 02:20:46;;;;;;;3.10;2.90;;;25.00;63.40;;;;;;5057428;28;20047;-52
2021/07/27 02:23:12;;;;;;;3.78;3.58;;;25.00;63.20;;;;;;5056916;28;20822;-45
2021/07/27 02:25:37;;;;;;;3.78;3.58;;;25.00;63.40;;;;;;5046360;28;20418;-47
2021/07/27 02:28:03;;;;;;;3.25;3.05;;;25.00;63.20;;;;;;5057677;28;20464;-51
2021/07/27 02:30:32;;;;;;;3.25;3.13;;;25.00;63.40;;;;;;5057899;28;20036;-43
2021/07/27 02:32:58;;;;;;;2.78;2.67;;;25.00;63.20;;;;;;5054519;28;20115;-44
2021/07/27 02:35:33;;;;;;;3.47;3.30;;;25.00;63.20;;;;;;5058550;28;20071;-41
2021/07/27 02:37:59;;;;;;;3.50;3.30;;;25.00;63.20;;;;;;5058286;28;20035;-44
2021/07/27 02:40:24;;;;;;;3.13;3.03;;;25.00;63.20;;;;;;5057184;28;20477;-47
2021/07/27 02:42:50;;;;;;;3.08;2.97;;;25.00;63.40;;;;;;5055227;28;20441;-47
2021/07/27 02:45:21;;;;;;;3.58;3.38;;;25.00;63.30;;;;;;5057754;28;20032;-39
2021/07/27 02:47:47;;;;;;;3.58;3.38;;;25.00;63.20;;;;;;5057887;28;20039;-47
2021/07/27 02:50:13;;;;;;;3.42;3.22;;;25.00;63.30;;;;;;5057457;28;20037;-52
2021/07/27 02:52:44;;;;;;;3.80;3.70;;;25.00;63.20;;;;;;5055405;28;20090;-44
2021/07/27 02:55:10;;;;;;;2.67;2.58;;;25.00;63.40;;;;;;5057703;28;20119;-42
2021/07/27 02:57:36;;;;;;;3.63;3.53;;;25.00;63.20;;;;;;5057288;28;20079;-45
2021/07/27 03:00:03;;;;;;;3.92;3.72;;;25.00;63.30;;;;;;5056784;28;20494;-44
2021/07/27 03:02:38;;;;;;;3.50;3.33;;;25.00;63.40;;;;;;5054999;28;20029;-47
2021/07/27 03:05:05;;;;;;;3.55;3.35;;;25.00;63.40;;;;;;5057789;28;20107;-44
2021/07/27 03:07:37;;;;;;;3.70;3.55;;;25.00;63.40;;;;;;5057239;28;20714;-48
2021/07/27 03:10:19;;;;;;;3.50;3.30;;;24.90;63.60;;;;;;5049257;28;20029;-51
2021/07/27 03:12:47;;;;;;;3.65;3.45;;;25.00;63.40;;;;;;5054087;28;20052;-46
2021/07/27 03:15:14;;;;;;;3.25;3.15;;;25.00;63.60;;;;;;5056548;28;20270;-45
2021/07/27 03:17:40;;;;;;;3.47;3.28;;;25.00;63.20;;;;;;5057128;28;20028;-47
2021/07/27 03:20:06;;;;;;;3.50;3.40;;;25.00;63.40;;;;;;5047983;28;20028;-36
2021/07/27 03:22:32;;;;;;;3.40;3.20;;;24.90;63.40;;;;;;5046706;28;20060;-42
2021/07/27 03:24:58;;;;;;;3.00;2.90;;;24.90;63.40;;;;;;5057248;28;20028;-45
2021/07/27 03:27:23;;;;;;;3.70;3.50;;;25.00;63.40;;;;;;5056878;28;20083;-48
2021/07/27 03:29:49;;;;;;;3.25;3.15;;;24.90;63.50;;;;;;5056293;28;20032;-48
2021/07/27 03:32:14;;;;;;;3.70;3.50;;;25.00;63.50;;;;;;5055560;28;20033;-45
2021/07/27 03:34:43;;;;;;;3.80;3.60;;;25.00;63.40;;;;;;5056470;28;20040;-46
2021/07/27 03:37:12;;;;;;;3.65;3.50;;;25.00;63.30;;;;;;5056235;28;20756;-54
2021/07/27 03:39:38;;;;;;;4.00;3.80;;;25.00;63.40;;;;;;5038098;28;20537;-46
2021/07/27 03:42:03;;;;;;;3.67;3.58;;;25.00;63.40;;;;;;5054931;28;20036;-44
2021/07/27 03:44:29;;;;;;;3.42;3.33;;;24.90;63.50;;;;;;5055971;28;20047;-46
2021/07/27 03:47:02;;;;;;;3.55;3.25;;;25.00;63.50;;;;;;5056134;28;20037;-42
2021/07/27 03:49:29;;;;;;;3.42;3.33;;;24.90;63.50;;;;;;5048149;28;20131;-40
2021/07/27 03:51:55;;;;;;;3.30;3.10;;;24.90;63.60;;;;;;5054339;28;20042;-35
2021/07/27 03:54:21;;;;;;;3.30;3.10;;;25.00;63.60;;;;;;5055143;28;20028;-44
2021/07/27 03:56:46;;;;;;;3.25;3.05;;;25.00;63.50;;;;;;5056549;28;20155;-44
2021/07/27 03:59:14;;;;;;;3.10;2.90;;;25.00;63.60;;;;;;5056949;28;20032;-44
2021/07/27 04:01:41;;;;;;;3.17;2.97;;;25.00;63.70;;;;;;4702666;28;10000546;-45
2021/07/27 04:04:06;;;;;;;3.15;3.05;;;24.90;63.60;;;;;;5053767;28;20136;-45
2021/07/27 04:06:32;;;;;;;3.13;2.97;;;24.90;63.70;;;;;;5054021;28;20031;-45
2021/07/27 04:08:57;;;;;;;3.53;3.33;;;25.00;63.50;;;;;;5053813;28;20029;-44
2021/07/27 04:11:23;;;;;;;3.35;3.25;;;25.00;63.40;;;;;;5052786;28;20490;-42
2021/07/27 04:13:48;;;;;;;3.30;3.10;;;25.00;63.50;;;;;;5052526;28;20108;-45
2021/07/27 04:16:15;;;;;;;3.47;3.28;;;24.90;63.70;;;;;;5042272;28;20047;-40
2021/07/27 04:18:40;;;;;;;3.10;3.00;;;24.80;63.80;;;;;;5054169;28;20143;-40
2021/07/27 04:21:06;;;;;;;3.20;3.10;;;24.90;63.80;;;;;;5051903;28;20153;-44
2021/07/27 04:23:31;;;;;;;3.50;3.30;;;24.90;63.80;;;;;;5053375;28;20063;-35
2021/07/27 04:25:58;;;;;;;2.85;2.75;;;24.80;63.90;;;;;;5053717;28;20041;-46
2021/07/27 04:28:23;;;;;;;3.10;2.90;;;24.80;64.00;;;;;;5045028;28;20028;-42
2021/07/27 04:30:49;;;;;;;3.50;3.30;;;24.70;64.30;;;;;;5052481;28;20062;-41
2021/07/27 04:33:16;;;;;;;3.25;3.05;;;24.60;64.70;;;;;;5044815;28;20032;-37
2021/07/27 04:35:42;;;;;;;3.38;3.17;;;24.50;65.00;;;;;;5057555;28;20036;-44
2021/07/27 04:38:07;;;;;;;3.10;2.90;;;24.60;65.00;;;;;;5058242;28;20051;-36
2021/07/27 04:40:33;;;;;;;3.80;3.22;;;24.60;65.10;;;;;;5057231;28;20155;-37
2021/07/27 04:42:59;;;;;;;3.65;3.45;;;24.60;65.10;;;;;;5055277;28;20044;-40
2021/07/27 04:45:27;;;;;;;3.03;2.92;;;24.60;65.00;;;;;;5057591;28;20033;-39
2021/07/27 04:47:53;;;;;;;3.50;3.30;;;24.60;65.00;;;;;;5057396;28;20410;-37
2021/07/27 04:50:19;;;;;;;2.90;2.80;;;24.60;64.90;;;;;;5058107;28;20036;-41
2021/07/27 04:52:51;;;;;;;2.60;2.50;;;24.60;65.00;;;;;;5054897;28;20040;-35
2021/07/27 04:55:16;;;;;;;3.10;2.90;;;24.60;65.10;;;;;;5057261;28;20478;-43
2021/07/27 04:57:42;;;;;;;3.45;3.25;;;24.60;64.80;;;;;;5057984;28;20040;-40
2021/07/27 05:00:23;;;;;;;3.20;3.00;;;24.60;64.90;;;;;;5057365;28;20036;-35
2021/07/27 05:02:49;;;;;;;3.30;3.10;;;24.60;65.00;;;;;;5053856;28;20036;-38
2021/07/27 05:05:15;;;;;;;3.38;3.17;;;24.60;64.70;;;;;;5057565;28;20029;-40
2021/07/27 05:07:42;;;;;;;3.00;2.90;;;24.70;64.60;;;;;;5056965;28;20037;-43
2021/07/27 05:10:08;;;;;;;2.92;2.83;;;24.60;64.70;;;;;;5057081;28;20039;-43
2021/07/27 05:12:35;;;;;;;3.22;3.13;;;24.60;64.80;;;;;;5046366;28;20544;-34
2021/07/27 05:15:01;;;;;;;2.72;2.63;;;24.60;64.80;;;;;;5048099;28;20490;-45
2021/07/27 05:17:26;;;;;;;2.60;2.50;;;24.60;64.80;;;;;;5057057;28;20040;-42
2021/07/27 05:19:52;;;;;;;2.88;2.78;;;24.60;65.00;;;;;;5056789;28;20804;-41
2021/07/27 05:22:20;;;;;;;9.35;2.65;;;24.60;64.90;;;;;;5045178;28;20067;-41
2021/07/27 05:24:46;;;;;;;4.40;2.92;;;24.60;64.80;;;;;;5055567;28;20106;-41
2021/07/27 05:27:12;;;;;;;2.80;2.60;;;24.60;65.20;;;;;;5056190;28;20103;-42
2021/07/27 05:29:37;;;;;;;2.80;2.70;;;24.60;64.70;;;;;;5057228;28;20036;-42
2021/07/27 05:32:03;;;;;;;2.90;2.80;;;24.60;64.70;;;;;;5056012;28;20437;-42
2021/07/27 05:34:29;;;;;;;2.40;2.30;;;24.60;64.80;;;;;;5053997;28;20029;-42
2021/07/27 05:36:54;;;;;;;2.70;2.58;;;24.60;64.80;;;;;;5047380;28;20397;-43
2021/07/27 05:39:20;;;;;;;2.50;2.38;;;24.60;64.70;;;;;;5055786;28;20027;-43
2021/07/27 05:41:45;;;;;;;3.20;3.10;;;24.70;64.60;;;;;;5053006;28;20564;-43
2021/07/27 05:44:11;;;;;;;2.65;2.55;;;24.70;64.70;;;;;;5055352;28;20037;-43
2021/07/27 05:46:37;;;;;;;2.80;2.70;;;24.70;64.60;;;;;;5055020;28;20047;-44
2021/07/27 05:49:04;;;;;;;3.00;2.90;;;24.70;64.70;;;;;;5053556;28;20575;-43
2021/07/27 05:51:30;;;;;;;2.65;2.50;;;24.60;64.80;;;;;;5053013;28;20056;-42
2021/07/27 05:53:56;;;;;;;2.60;2.50;;;24.60;64.80;;;;;;5053613;28;20569;-43
2021/07/27 05:56:22;;;;;;;2.78;2.67;;;24.60;64.80;;;;;;5054741;28;20044;-44
2021/07/27 05:58:47;;;;;;;2.63;2.53;;;24.70;64.70;;;;;;5044180;28;20080;-44
2021/07/27 06:01:13;;;;;;;3.00;2.78;;;24.60;64.80;;;;;;5052569;28;20028;-44
2021/07/27 06:03:38;;;;;;;2.75;2.65;;;24.70;64.90;;;;;;5054504;28;20716;-40
2021/07/27 06:06:04;;;;;;;2.80;2.70;;;24.70;64.60;;;;;;5056174;28;20036;-41
2021/07/27 06:08:29;;;;;;;2.80;2.70;;;24.70;64.40;;;;;;5053882;28;20066;-42
2021/07/27 06:10:55;;;;;;;2.53;2.42;;;24.70;64.40;;;;;;5053558;28;20060;-42
2021/07/27 06:13:21;;;;;;;2.40;2.30;;;24.80;64.60;;;;;;5044197;28;20145;-38
2021/07/27 06:15:46;;;;;;;2.95;2.85;;;24.70;64.50;;;;;;5055557;28;20532;-38
2021/07/27 06:18:12;;;;;;;2.97;2.78;;;24.80;64.60;;;;;;5045739;28;20032;-31
2021/07/27 06:20:39;;;;;;;2.38;2.28;;;24.80;64.60;;;;;;5054102;28;20509;-36
2021/07/27 06:23:06;;;;;;;2.65;2.55;;;24.80;64.50;;;;;;5053966;28;20064;-32
2021/07/27 06:25:31;;;;;;;2.40;2.30;;;24.70;64.60;;;;;;5053030;28;20162;-36
2021/07/27 06:27:57;;;;;;;2.70;2.60;;;24.80;64.60;;;;;;5055233;28;20057;-37
2021/07/27 06:30:22;;;;;;;2.67;2.58;;;24.80;64.50;;;;;;5054341;28;21124;-37
2021/07/27 06:32:48;;;;;;;2.28;2.17;;;24.80;64.40;;;;;;5052988;28;20143;-39
2021/07/27 06:35:14;;;;;;;2.65;2.55;;;24.80;64.40;;;;;;5055232;28;20039;-46
2021/07/27 06:37:40;;;;;;;2.63;2.53;;;24.70;64.60;;;;;;5055097;28;20043;-42
2021/07/27 06:40:06;;;;;;;2.35;2.25;;;24.80;64.70;;;;;;5054703;28;20029;-54
2021/07/27 06:42:32;;;;;;;2.95;2.85;;;24.80;64.70;;;;;;5053575;28;20040;-38
2021/07/27 06:44:57;;;;;;;2.55;2.45;;;24.80;64.60;;;;;;5054624;28;20033;-39
2021/07/27 06:47:23;;;;;;;2.30;2.20;;;24.80;64.80;;;;;;5054288;28;20040;-46
2021/07/27 06:49:48;;;;;;;2.63;2.53;;;24.80;64.60;;;;;;5052271;28;20039;-34
2021/07/27 06:52:14;;;;;;;2.13;2.00;;;24.90;64.60;;;;;;5041891;28;20037;-45
2021/07/27 06:54:39;;;;;;;2.17;2.08;;;24.80;64.50;;;;;;5054253;28;20677;-41
2021/07/27 06:57:05;;;;;;;2.50;2.40;;;24.90;64.60;;;;;;5053357;28;20052;-40
2021/07/27 06:59:30;;;;;;;2.40;2.30;;;24.90;64.40;;;;;;5054651;28;20041;-32
2021/07/27 07:01:56;;;;;;;2.80;2.70;;;24.90;64.50;;;;;;5053128;28;20041;-42
2021/07/27 07:04:22;;;;;;;2.53;2.38;;;24.90;64.50;;;;;;5053657;28;20498;-34
2021/07/27 07:06:47;;;;;;;2.70;2.47;;;24.90;64.90;;;;;;5043954;28;20025;-40
2021/07/27 07:09:13;;;;;;;3.00;2.80;;;24.90;65.00;;;;;;5053945;28;20047;-42
2021/07/27 07:11:38;;;;;;;2.45;2.35;;;24.90;65.10;;;;;;5053200;28;20025;-42
2021/07/27 07:14:04;;;;;;;2.80;2.60;;;24.90;64.90;;;;;;5053093;28;20495;-43
2021/07/27 07:16:29;;;;;;;2.58;2.47;;;24.90;64.90;;;;;;5053057;28;20032;-45
2021/07/27 07:18:55;;;;;;;2.67;2.50;;;24.80;65.00;;;;;;5052502;28;20170;-45
2021/07/27 07:21:21;;;;;;;2.35;2.25;;;24.90;65.20;;;;;;5050503;28;20032;-40
2021/07/27 07:23:46;;;;;;;2.65;2.55;;;24.90;65.20;;;;;;5052324;28;20060;-43
2021/07/27 07:26:12;;;;;;;2.60;2.50;;;24.80;65.10;;;;;;5057628;28;20067;-45
2021/07/27 07:28:37;;;;;;;3.45;2.60;;;24.80;65.20;;;;;;5056260;28;21591;-36
2021/07/27 07:31:03;;;;;;;2.75;2.65;;;24.80;65.20;;;;;;5043509;28;20035;-41
2021/07/27 07:33:28;;;;;;;2.40;2.30;;;24.80;65.20;;;;;;5054179;28;20128;-38
2021/07/27 07:35:54;;;;;;;2.33;2.22;;;24.70;65.40;;;;;;5054769;28;20024;-43
2021/07/27 07:38:20;;;;;;;2.40;2.30;;;24.70;65.70;;;;;;5045526;28;20040;-31
2021/07/27 07:40:45;;;;;;;2.60;2.50;;;24.70;65.40;;;;;;5053824;28;20017;-37
2021/07/27 07:43:11;;;;;;;2.40;2.30;;;24.70;65.80;;;;;;5052608;28;20142;-42
2021/07/27 07:45:37;;;;;;;2.05;1.95;;;24.60;66.00;;;;;;5054111;28;20028;-37
2021/07/27 07:48:03;;;;;;;2.60;2.35;;;24.60;66.00;;;;;;5054053;28;20516;-42
2021/07/27 07:50:29;;;;;;;2.58;2.47;;;24.60;66.20;;;;;;5054524;28;20025;-34
2021/07/27 07:52:58;;;;;;;2.80;2.70;;;24.60;66.30;;;;;;5042509;28;20036;-43
2021/07/27 07:55:24;;;;;;;2.53;2.33;;;24.60;66.20;;;;;;5053999;28;20075;-33
2021/07/27 07:57:50;;;;;;;2.58;2.47;;;24.60;66.30;;;;;;5054117;28;20116;-43
2021/07/27 08:00:15;;;;;;;2.50;2.40;;;24.60;66.30;;;;;;5054163;28;20103;-42
2021/07/27 08:02:41;;;;;;;2.50;2.40;;;24.70;66.20;;;;;;5051375;28;20072;-40
2021/07/27 08:05:07;;;;;;;2.55;2.45;;;24.70;66.20;;;;;;5053803;28;20108;-43
2021/07/27 08:07:34;;;;;;;2.30;2.20;;;24.70;66.20;;;;;;5053179;28;20036;-35
2021/07/27 08:10:00;;;;;;;2.33;2.08;;;24.70;66.20;;;;;;5053378;28;20240;-30
2021/07/27 08:12:25;;;;;;;2.60;2.50;;;24.70;66.20;;;;;;5052030;28;20095;-42
2021/07/27 08:14:51;;;;;;;2.83;2.70;;;24.80;65.90;;;;;;5053994;28;20029;-33
2021/07/27 08:17:16;;;;;;;2.85;2.67;;;24.70;65.90;;;;;;5054803;28;20040;-41
2021/07/27 08:19:42;;;;;;;2.40;2.30;;;24.80;66.70;;;;;;5052730;28;20082;-38
2021/07/27 08:22:07;;;;;;;2.90;1.85;;;24.70;65.90;;;;;;5051188;28;20048;-32
2021/07/27 08:24:33;;;;;;;2.60;2.50;;;24.80;65.90;;;;;;5052995;28;20065;-37
2021/07/27 08:26:59;;;;;;;2.63;2.53;;;24.90;65.60;;;;;;5053992;28;20024;-33
2021/07/27 08:29:25;;;;;;;2.30;2.20;;;24.80;65.80;;;;;;5045586;28;20036;-35
2021/07/27 08:31:51;;;;;;;2.50;2.40;;;24.70;65.90;;;;;;5050948;28;20036;-42
2021/07/27 08:34:18;;;;;;;2.80;2.70;;;24.80;65.60;;;;;;5048305;28;20111;-43
2021/07/27 08:36:44;;;;;;;2.38;2.28;;;24.90;65.70;;;;;;5042635;28;20060;-43
2021/07/27 08:39:10;;;;;;;3.58;2.38;;;24.80;65.50;;;;;;5041064;28;21727;-43
2021/07/27 08:41:36;;;;;;;2.47;2.38;;;24.80;65.40;;;;;;5038769;28;20028;-43
2021/07/27 08:44:02;;;;;;;2.45;2.35;;;24.90;65.40;;;;;;5050005;28;20560;-46
2021/07/27 08:46:27;;;;;;;2.15;2.05;;;24.90;65.30;;;;;;5050828;28;20561;-42
2021/07/27 08:48:53;;;;;;;2.35;2.25;;;24.90;65.10;;;;;;5040108;28;20104;-45
2021/07/27 08:51:23;;;;;;;2.67;2.53;;;24.90;65.40;;;;;;5028659;28;20688;-43
2021/07/27 08:53:49;;;;;;;3.03;2.50;;;24.90;65.40;;;;;;5030201;28;20029;-43
2021/07/27 08:56:14;;;;;;;2.80;2.60;;;24.90;65.60;;;;;;5036184;28;20036;-45
2021/07/27 09:02:02;;;;;;;2.47;2.30;;;24.80;65.90;;;;;;5047297;28;20429;-43
2021/07/27 09:04:31;;;;;;;2.40;2.30;;;24.90;66.10;;;;;;5048754;28;20066;-45
2021/07/27 09:07:00;;;;;;;2.90;2.70;;;25.00;66.00;;;;;;5047411;28;20148;-42
2021/07/27 09:09:32;;;;;;;2.63;2.53;;;25.00;66.00;;;;;;5047023;28;20134;-45
2021/07/27 09:12:02;;;;;;;2.40;2.30;;;25.00;66.30;;;;;;5046317;28;20807;-42
2021/07/27 09:14:28;;;;;;;2.60;2.50;;;24.90;66.30;;;;;;5048716;28;20521;-38
2021/07/27 09:16:58;;;;;;;2.90;2.80;;;24.90;66.60;;;;;;5044943;28;20805;-43
2021/07/27 09:19:24;;;;;;;2.60;2.50;;;25.00;66.30;;;;;;5047861;28;20054;-42
2021/07/27 09:21:50;;;;;;;2.75;2.60;;;25.00;66.20;;;;;;5050498;28;20028;-47
2021/07/27 09:24:21;;;;;;;3.08;2.88;;;25.10;65.90;;;;;;5053273;28;20059;-30
2021/07/27 09:26:57;;;;;;;2.90;2.80;;;25.10;65.60;;;;;;5055348;28;20033;-41
2021/07/27 09:29:23;;;;;;;2.50;2.40;;;25.10;65.70;;;;;;5054468;28;20051;-44
2021/07/27 09:31:52;;;;;;;2.65;2.55;;;25.10;65.50;;;;;;5041783;28;20032;-35
2021/07/27 09:34:18;;;;;;;2.70;2.60;;;25.20;65.90;;;;;;5054596;28;20040;-43
2021/07/27 09:36:44;;;;;;;2.45;2.33;;;25.20;65.60;;;;;;5044958;28;20032;-41
2021/07/27 09:39:09;;;;;;;2.75;2.55;;;25.20;65.50;;;;;;5046458;28;20040;-51
2021/07/27 09:41:35;;;;;;;3.35;3.08;;;25.20;65.50;;;;;;5052956;28;20060;-46
2021/07/27 09:44:01;;;;;;;2.60;2.40;;;25.20;65.80;;;;;;5042590;28;20045;-39
2021/07/27 09:46:27;;;;;;;2.35;2.25;;;25.20;65.80;;;;;;5053778;28;20127;-38
2021/07/27 09:48:53;;;;;;;2.78;2.47;;;25.30;65.70;;;;;;5029407;28;21517;-45
2021/07/27 09:51:19;;;;;;;2.30;2.20;;;25.20;65.60;;;;;;5051228;28;20117;-37
2021/07/27 09:53:45;;;;;;;2.72;2.53;;;25.30;65.50;;;;;;5051644;28;20123;-39
2021/07/27 09:56:11;;;;;;;2.53;2.42;;;25.40;65.30;;;;;;5053043;28;20028;-37
2021/07/27 09:58:37;;;;;;;2.17;2.08;;;25.30;65.60;;;;;;5053430;28;20040;-51
2021/07/27 10:01:09;;;;;;;2.85;2.10;;;25.30;65.40;;;;;;5051243;28;20039;-42
2021/07/27 10:03:56;;;;;;;2.15;2.05;;;25.40;65.60;;;;;;5034058;28;20105;-49
2021/07/27 10:06:24;;;;;;;3.40;2.13;;;25.30;65.60;;;;;;5052567;28;20044;-41
2021/07/27 10:08:59;;;;;;;2.10;1.95;;;25.30;65.60;;;;;;5038436;28;23449;-43
2021/07/27 10:11:41;;;;;;;2.15;2.05;;;25.30;65.60;;;;;;5051225;28;20042;-41
2021/07/27 10:14:09;;;;;;;2.20;2.10;;;25.40;65.70;;;;;;5054076;28;20036;-43
2021/07/27 10:16:36;;;;;;;2.10;2.00;;;25.40;65.70;;;;;;5054009;28;20691;-39
2021/07/27 10:19:18;;;;;;;2.25;2.15;;;25.40;65.80;;;;;;5053504;28;20787;-34
2021/07/27 10:22:01;;;;;;;2.33;1.75;;;25.40;65.30;;;;;;5052228;28;20045;-43
2021/07/27 10:24:34;;;;;;;2.20;2.10;;;25.40;65.80;;;;;;5052246;28;20589;-37
2021/07/27 10:27:19;;;;;;;2.35;2.08;;;25.40;65.30;;;;;;5054181;28;20689;-45
2021/07/27 10:29:45;;;;;;;2.90;2.05;;;25.40;65.20;;;;;;5051635;28;20044;-35
2021/07/27 10:32:18;;;;;;;2.47;2.33;;;25.40;65.70;;;;;;5050655;28;20406;-42
2021/07/27 10:34:44;;;;;;;3.23;1.77;;;25.40;65.50;;;;;;5052339;28;20036;-43
2021/07/27 10:37:15;;;;;;;2.30;2.20;;;25.40;65.40;;;;;;5048447;28;20800;-44
2021/07/27 10:39:55;;;;;;;2.25;2.15;;;25.40;65.30;;;;;;5051353;28;20035;-43
2021/07/27 10:42:23;;;;;;;1.95;1.85;;;25.30;66.10;;;;;;5046167;28;20058;-43
2021/07/27 10:44:49;;;;;;;3.20;2.00;;;25.30;65.80;;;;;;5052367;28;20866;-43
2021/07/27 10:47:33;;;;;;;2.50;2.30;;;25.30;66.00;;;;;;5048409;28;20024;-43
2021/07/27 10:50:08;;;;;;;4.82;2.33;;;25.30;66.00;;;;;;5049614;28;20056;-45
2021/07/27 10:52:34;;;;;;;2.35;2.25;;;25.40;65.90;;;;;;5046521;28;20409;-44
2021/07/27 10:55:00;;;;;;;2.05;1.95;;;25.40;65.70;;;;;;5044133;28;20033;-44
2021/07/27 10:57:35;;;;;;;2.05;1.95;;;25.40;65.70;;;;;;5048915;28;20032;-44
2021/07/27 11:00:05;;;;;;;2.28;2.15;;;25.40;65.50;;;;;;5047451;28;20052;-42
2021/07/27 11:02:31;;;;;;;2.60;2.10;;;25.40;65.30;;;;;;5046969;28;20033;-45
2021/07/27 11:04:56;;;;;;;2.20;2.10;;;25.50;65.00;;;;;;5048901;28;20041;-43
2021/07/27 11:07:22;;;;;;;1.92;1.83;;;25.50;64.90;;;;;;5047598;28;21832;-45
2021/07/27 11:09:51;;;;;;;2.25;2.13;;;25.40;64.80;;;;;;5047612;28;20032;-44
2021/07/27 11:12:29;;;;;;;2.20;2.00;;;25.40;64.90;;;;;;5047087;28;20094;-44
2021/07/27 11:15:08;;;;;;;2.05;1.95;;;25.40;64.90;;;;;;5049051;28;20082;-44
2021/07/27 11:17:38;;;;;;;2.20;2.10;;;25.40;64.60;;;;;;5047709;28;20074;-39
2021/07/27 11:20:05;;;;;;;2.10;2.00;;;25.50;64.60;;;;;;5039706;28;20039;-44
2021/07/27 11:22:31;;;;;;;2.60;2.40;;;25.40;64.20;;;;;;5039497;28;20179;-45
2021/07/27 11:24:57;;;;;;;2.47;2.20;;;25.50;64.30;;;;;;5040040;28;20040;-45
2021/07/27 11:27:32;;;;;;;1.92;1.80;;;25.40;63.90;;;;;;5040245;28;20036;-43
2021/07/27 11:29:59;;;;;;;2.20;2.00;;;25.30;64.20;;;;;;5046011;28;20115;-43
2021/07/27 11:32:39;;;;;;;1.98;1.88;;;25.30;64.90;;;;;;5047403;28;20036;-43
2021/07/27 11:35:05;;;;;;;2.08;1.90;;;25.30;65.00;;;;;;5047581;28;20085;-43
2021/07/27 11:37:31;;;;;;;1.90;1.80;;;25.30;63.80;;;;;;5048503;28;21608;-44
2021/07/27 11:39:56;;;;;;;2.47;2.05;;;25.30;63.40;;;;;;5039331;28;20047;-41
2021/07/27 11:42:32;;;;;;;2.13;2.03;;;25.30;63.30;;;;;;5043689;28;20437;-44
2021/07/27 11:45:00;;;;;;;1.90;1.80;;;25.40;63.60;;;;;;5038828;28;20077;-42
2021/07/27 11:47:42;;;;;;;2.28;2.10;;;25.50;63.00;;;;;;5049482;28;20032;-43
2021/07/27 11:50:13;;;;;;;1.60;1.50;;;25.40;62.80;;;;;;5041695;28;20044;-42
2021/07/27 11:52:38;;;;;;;3.42;1.80;;;25.40;62.70;;;;;;5046529;28;20459;-40
2021/07/27 11:55:04;;;;;;;4.30;1.80;;;25.40;62.30;;;;;;5047060;28;20091;-42
2021/07/27 11:57:30;;;;;;;1.92;1.83;;;25.50;62.80;;;;;;5047885;28;20028;-42
2021/07/27 12:00:09;;;;;;;2.40;1.90;;;25.60;62.40;;;;;;5035607;28;20039;-42
2021/07/27 12:02:35;;;;;;;1.63;1.52;;;25.60;62.70;;;;;;5039177;28;20028;-42
2021/07/27 12:05:01;;;;;;;2.90;1.55;;;25.40;62.20;;;;;;5045846;28;20928;-43
2021/07/27 12:07:29;;;;;;;2.13;1.80;;;25.40;62.50;;;;;;5045326;28;20776;-44
2021/07/27 12:09:55;;;;;;;2.35;1.83;;;25.40;62.30;;;;;;5041620;28;20067;-46
2021/07/27 12:12:20;;;;;;;2.58;1.80;;;25.50;62.70;;;;;;5043463;28;20078;-45
2021/07/27 12:14:46;;;;;;;1.95;1.48;;;25.50;62.70;;;;;;5042011;28;20410;-38
2021/07/27 12:17:12;;;;;;;2.80;1.23;;;25.50;62.30;;;;;;5043212;28;20833;-42
2021/07/27 12:19:37;;;;;;;1.90;1.70;;;25.50;62.80;;;;;;5042412;28;20904;-42
2021/07/27 12:22:03;;;;;;;1.70;1.60;;;25.50;62.40;;;;;;5039505;28;20056;-42
2021/07/27 12:24:29;;;;;;;1.67;1.42;;;25.50;63.30;;;;;;5039633;28;20056;-44
2021/07/27 12:26:54;;;;;;;1.55;1.35;;;25.60;62.80;;;;;;5047440;28;20024;-44
2021/07/27 12:29:20;;;;;;;1.77;1.67;;;25.60;62.60;;;;;;5038089;28;20127;-44
2021/07/27 12:31:45;;;;;;;1.70;1.60;;;25.60;62.70;;;;;;5047380;28;20067;-43
2021/07/27 12:34:11;;;;;;;2.05;1.60;;;25.60;62.70;;;;;;5044844;28;20060;-46
2021/07/27 12:36:38;;;;;;;1.65;1.55;;;25.60;62.80;;;;;;5047292;28;20653;-44
2021/07/27 12:39:03;;;;;;;1.63;1.40;;;25.60;62.80;;;;;;5046383;28;20115;-43
2021/07/27 12:41:29;;;;;;;1.38;1.27;;;25.60;63.00;;;;;;5042578;28;20517;-45
2021/07/27 12:43:55;;;;;;;1.70;1.30;;;25.60;62.80;;;;;;5040107;28;20040;-44
2021/07/27 12:46:24;;;;;;;1.75;1.65;;;25.70;63.00;;;;;;5047334;28;20039;-43
2021/07/27 12:48:50;;;;;;;1.50;1.40;;;25.70;63.00;;;;;;5047929;28;20433;-44
2021/07/27 12:51:17;;;;;;;1.75;1.50;;;25.70;63.20;;;;;;5044394;28;20023;-44
2021/07/27 12:53:44;;;;;;;1.27;1.27;;;25.70;63.00;;;;;;5050304;28;20029;-44
2021/07/27 12:56:10;;;;;;;1.40;1.30;;;25.70;63.20;;;;;;5054126;28;20047;-44
2021/07/27 12:58:36;;;;;;;4.28;1.50;;;25.70;63.30;;;;;;5053107;28;20119;-44
2021/07/27 13:01:02;;;;;;;1.40;1.30;;;25.70;63.00;;;;;;5041624;28;20891;-44
2021/07/27 13:03:27;;;;;;;1.30;1.20;;;25.70;63.40;;;;;;5049848;28;21225;-44
2021/07/27 13:05:54;;;;;;;1.75;1.30;;;25.70;63.10;;;;;;5056226;28;20899;-43
2021/07/27 13:08:20;;;;;;;1.10;1.10;;;25.70;63.30;;;;;;5052351;28;20029;-44
2021/07/27 13:10:49;;;;;;;1.50;1.40;;;25.70;63.20;;;;;;5052061;28;21218;-43